sensor_id;sensor_type;location;lat;lon;timestamp;pressure;altitude;pressure_sealevel;temperature;humidity
86115;BME280;76768;49.464;10.882;2024-03-02T00:01:50;96720.88;;;4.97;80.93
86115;BME280;76768;49.464;10.882;2024-03-02T00:04:15;96731.78;;;5.04;81.39
86115;BME280;76768;49.464;10.882;2024-03-02T00:06:42;96729.81;;;5.05;82.05
86115;BME280;76768;49.464;10.882;2024-03-02T00:09:08;96727.88;;;5.02;83.29
86115;BME280;76768;49.464;10.882;2024-03-02T00:11:35;96724.34;;;5.01;83.09
86115;BME280;76768;49.464;10.882;2024-03-02T00:14:01;96713.72;;;5.03;81.07
86115;BME280;76768;49.464;10.882;2024-03-02T00:16:30;96720.34;;;5.06;81.81
86115;BME280;76768;49.464;10.882;2024-03-02T00:18:56;96722.63;;;5.11;83.45
86115;BME280;76768;49.464;10.882;2024-03-02T00:21:26;96717.19;;;5.07;82.18
86115;BME280;76768;49.464;10.882;2024-03-02T00:23:52;96725.75;;;5.13;84.61
86115;BME280;76768;49.464;10.882;2024-03-02T00:26:18;96726.50;;;5.13;82.59
86115;BME280;76768;49.464;10.882;2024-03-02T00:28:44;96726.50;;;5.13;82.50
86115;BME280;76768;49.464;10.882;2024-03-02T00:31:13;96718.63;;;5.15;83.52
86115;BME280;76768;49.464;10.882;2024-03-02T00:33:46;96724.13;;;5.15;83.21
86115;BME280;76768;49.464;10.882;2024-03-02T00:36:13;96719.41;;;5.16;82.49
86115;BME280;76768;49.464;10.882;2024-03-02T00:38:44;96725.69;;;5.16;82.90
86115;BME280;76768;49.464;10.882;2024-03-02T00:41:16;96724.91;;;5.16;83.10
86115;BME280;76768;49.464;10.882;2024-03-02T00:43:45;96726.88;;;5.15;83.49
86115;BME280;76768;49.464;10.882;2024-03-02T00:46:13;96721.88;;;5.10;83.48
86115;BME280;76768;49.464;10.882;2024-03-02T00:48:51;96726.50;;;5.13;82.87
86115;BME280;76768;49.464;10.882;2024-03-02T00:51:18;96727.38;;;5.10;83.46
86115;BME280;76768;49.464;10.882;2024-03-02T00:53:43;96730.47;;;5.12;82.76
86115;BME280;76768;49.464;10.882;2024-03-02T00:56:11;96730.47;;;5.12;83.52
86115;BME280;76768;49.464;10.882;2024-03-02T00:58:38;96724.97;;;5.12;83.33
86115;BME280;76768;49.464;10.882;2024-03-02T01:01:03;96738.38;;;5.10;82.56
86115;BME280;76768;49.464;10.882;2024-03-02T01:03:28;96727.38;;;5.10;83.00
86115;BME280;76768;49.464;10.882;2024-03-02T01:05:54;96732.88;;;5.10;82.12
86115;BME280;76768;49.464;10.882;2024-03-02T01:08:19;96748.69;;;5.06;83.14
86115;BME280;76768;49.464;10.882;2024-03-02T01:10:44;96733.81;;;5.00;82.49
86115;BME280;76768;49.464;10.882;2024-03-02T01:13:09;96731.50;;;4.99;82.53
86115;BME280;76768;49.464;10.882;2024-03-02T01:15:35;96732.34;;;4.95;84.92
86115;BME280;76768;49.464;10.882;2024-03-02T01:18:00;96730.84;;;4.91;82.59
86115;BME280;76768;49.464;10.882;2024-03-02T01:20:26;96724.63;;;4.87;83.59
86115;BME280;76768;49.464;10.882;2024-03-02T01:22:51;96724.63;;;4.87;82.70
86115;BME280;76768;49.464;10.882;2024-03-02T01:25:17;96727.00;;;4.85;82.86
86115;BME280;76768;49.464;10.882;2024-03-02T01:27:42;96724.25;;;4.85;82.54
86115;BME280;76768;49.464;10.882;2024-03-02T01:30:08;96724.63;;;4.87;82.46
86115;BME280;76768;49.464;10.882;2024-03-02T01:32:33;96724.66;;;4.83;83.05
86115;BME280;76768;49.464;10.882;2024-03-02T01:34:59;96714.16;;;4.78;82.97
86115;BME280;76768;49.464;10.882;2024-03-02T01:37:24;96727.00;;;4.85;83.83
86115;BME280;76768;49.464;10.882;2024-03-02T01:39:50;96721.53;;;4.81;82.80
86115;BME280;76768;49.464;10.882;2024-03-02T01:42:15;96726.28;;;4.81;82.83
86115;BME280;76768;49.464;10.882;2024-03-02T01:44:40;96735.72;;;4.80;82.77
86115;BME280;76768;49.464;10.882;2024-03-02T01:47:06;96731.06;;;4.77;82.83
86115;BME280;76768;49.464;10.882;2024-03-02T01:49:32;96730.72;;;4.75;82.60
86115;BME280;76768;49.464;10.882;2024-03-02T01:51:59;96731.06;;;4.77;84.37
86115;BME280;76768;49.464;10.882;2024-03-02T01:54:24;96729.16;;;4.74;83.27
86115;BME280;76768;49.464;10.882;2024-03-02T01:56:50;96731.91;;;4.74;83.77
86115;BME280;76768;49.464;10.882;2024-03-02T01:59:15;96736.22;;;4.75;83.80
86115;BME280;76768;49.464;10.882;2024-03-02T02:01:41;96723.28;;;4.71;84.16
86115;BME280;76768;49.464;10.882;2024-03-02T02:04:06;96736.94;;;4.79;84.09
86115;BME280;76768;49.464;10.882;2024-03-02T02:06:32;96739.69;;;4.79;84.12
86115;BME280;76768;49.464;10.882;2024-03-02T02:08:58;96734.19;;;4.79;83.38
86115;BME280;76768;49.464;10.882;2024-03-02T02:11:23;96738.47;;;4.80;83.77
86115;BME280;76768;49.464;10.882;2024-03-02T02:13:49;96741.25;;;4.80;83.88
86115;BME280;76768;49.464;10.882;2024-03-02T02:16:14;96738.13;;;4.78;83.21
86115;BME280;76768;49.464;10.882;2024-03-02T02:18:39;96741.34;;;4.72;84.78
86115;BME280;76768;49.464;10.882;2024-03-02T02:21:05;96740.63;;;4.68;83.61
86115;BME280;76768;49.464;10.882;2024-03-02T02:23:30;96730.56;;;4.58;83.71
86115;BME280;76768;49.464;10.882;2024-03-02T02:25:55;96727.44;;;4.56;85.00
86115;BME280;76768;49.464;10.882;2024-03-02T02:28:20;96732.22;;;4.52;85.01
86115;BME280;76768;49.464;10.882;2024-03-02T02:30:46;96727.56;;;4.49;83.95
86115;BME280;76768;49.464;10.882;2024-03-02T02:33:11;96729.13;;;4.50;83.12
86115;BME280;76768;49.464;10.882;2024-03-02T02:35:36;96734.63;;;4.50;84.41
86115;BME280;76768;49.464;10.882;2024-03-02T02:38:02;96729.13;;;4.50;84.27
86115;BME280;76768;49.464;10.882;2024-03-02T02:40:28;96727.56;;;4.49;84.50
86115;BME280;76768;49.464;10.882;2024-03-02T02:42:56;96720.50;;;4.48;84.04
86115;BME280;76768;49.464;10.882;2024-03-02T02:45:21;96735.34;;;4.54;84.16
86115;BME280;76768;49.464;10.882;2024-03-02T02:47:47;96723.97;;;4.52;84.36
86115;BME280;76768;49.464;10.882;2024-03-02T02:50:12;96730.56;;;4.58;83.83
86115;BME280;76768;49.464;10.882;2024-03-02T02:52:40;96727.03;;;4.58;84.62
86115;BME280;76768;49.464;10.882;2024-03-02T02:55:07;96725.47;;;4.57;84.25
86115;BME280;76768;49.464;10.882;2024-03-02T02:57:33;96726.19;;;4.61;83.47
86115;BME280;76768;49.464;10.882;2024-03-02T03:02:38;96725.78;;;4.62;83.66
86115;BME280;76768;49.464;10.882;2024-03-02T03:05:08;96716.81;;;4.58;84.05
86115;BME280;76768;49.464;10.882;2024-03-02T03:07:33;96725.78;;;4.62;84.32
86115;BME280;76768;49.464;10.882;2024-03-02T03:10:03;96731.28;;;4.62;84.34
86115;BME280;76768;49.464;10.882;2024-03-02T03:12:29;96720.38;;;4.55;84.09
86115;BME280;76768;49.464;10.882;2024-03-02T03:14:55;96725.84;;;4.59;83.51
86115;BME280;76768;49.464;10.882;2024-03-02T03:17:21;96732.84;;;4.63;86.08
86115;BME280;76768;49.464;10.882;2024-03-02T03:19:47;96715.63;;;4.59;86.08
86115;BME280;76768;49.464;10.882;2024-03-02T03:22:12;96728.13;;;4.64;87.12
86115;BME280;76768;49.464;10.882;2024-03-02T03:24:38;96729.59;;;4.68;86.62
86115;BME280;76768;49.464;10.882;2024-03-02T03:27:03;96719.91;;;4.60;87.96
86115;BME280;76768;49.464;10.882;2024-03-02T03:29:29;96721.84;;;4.63;87.07
86115;BME280;76768;49.464;10.882;2024-03-02T03:31:54;96726.41;;;4.74;86.92
86115;BME280;76768;49.464;10.882;2024-03-02T03:34:19;96726.41;;;4.74;87.59
86115;BME280;76768;49.464;10.882;2024-03-02T03:36:44;96727.13;;;4.78;87.67
86115;BME280;76768;49.464;10.882;2024-03-02T03:39:10;96721.63;;;4.78;88.05
86115;BME280;76768;49.464;10.882;2024-03-02T03:41:35;96721.63;;;4.78;87.96
86115;BME280;76768;49.464;10.882;2024-03-02T03:44:01;96724.72;;;4.80;90.33
86115;BME280;76768;49.464;10.882;2024-03-02T03:46:26;96715.25;;;4.81;88.67
86115;BME280;76768;49.464;10.882;2024-03-02T03:48:51;96722.34;;;4.82;89.52
86115;BME280;76768;49.464;10.882;2024-03-02T03:51:16;96722.34;;;4.82;88.94
86115;BME280;76768;49.464;10.882;2024-03-02T03:53:42;96713.28;;;4.81;89.69
86115;BME280;76768;49.464;10.882;2024-03-02T03:56:07;96718.88;;;4.78;89.15
86115;BME280;76768;49.464;10.882;2024-03-02T03:58:32;96727.84;;;4.82;88.52
86115;BME280;76768;49.464;10.882;2024-03-02T04:00:58;96724.72;;;4.80;88.78
86115;BME280;76768;49.464;10.882;2024-03-02T04:03:23;96724.72;;;4.80;87.18
86115;BME280;76768;49.464;10.882;2024-03-02T04:05:48;96722.03;;;4.76;88.13
86115;BME280;76768;49.464;10.882;2024-03-02T04:08:13;96726.41;;;4.74;89.14
86115;BME280;76768;49.464;10.882;2024-03-02T04:10:39;96722.50;;;4.71;89.81
86115;BME280;76768;49.464;10.882;2024-03-02T04:13:05;96722.50;;;4.71;88.55
86115;BME280;76768;49.464;10.882;2024-03-02T04:15:31;96723.34;;;4.68;89.51
86115;BME280;76768;49.464;10.882;2024-03-02T04:17:56;96728.00;;;4.71;88.86
86115;BME280;76768;49.464;10.882;2024-03-02T04:20:21;96728.06;;;4.67;88.15
86115;BME280;76768;49.464;10.882;2024-03-02T04:22:46;96719.47;;;4.65;88.08
86115;BME280;76768;49.464;10.882;2024-03-02T04:25:12;96733.56;;;4.67;87.54
86115;BME280;76768;49.464;10.882;2024-03-02T04:27:37;96732.00;;;4.66;88.90
86115;BME280;76768;49.464;10.882;2024-03-02T04:30:04;96739.91;;;4.64;88.97
86115;BME280;76768;49.464;10.882;2024-03-02T04:32:30;96738.34;;;4.63;88.95
86115;BME280;76768;49.464;10.882;2024-03-02T04:34:55;96739.94;;;4.61;89.39
86115;BME280;76768;49.464;10.882;2024-03-02T04:37:21;96747.06;;;4.58;88.86
86115;BME280;76768;49.464;10.882;2024-03-02T04:39:46;96742.41;;;4.55;89.33
86115;BME280;76768;49.464;10.882;2024-03-02T04:42:12;96740.13;;;4.50;89.13
86115;BME280;76768;49.464;10.882;2024-03-02T04:44:37;96738.56;;;4.49;88.45
86115;BME280;76768;49.464;10.882;2024-03-02T04:47:03;96740.13;;;4.50;88.52
86115;BME280;76768;49.464;10.882;2024-03-02T04:49:29;96736.22;;;4.47;87.72
86115;BME280;76768;49.464;10.882;2024-03-02T04:51:55;96739.41;;;4.46;88.87
86115;BME280;76768;49.464;10.882;2024-03-02T04:54:20;96740.31;;;4.36;88.58
86115;BME280;76768;49.464;10.882;2024-03-02T04:56:46;96751.22;;;4.43;89.59
86115;BME280;76768;49.464;10.882;2024-03-02T04:59:17;96741.03;;;4.40;89.69
86115;BME280;76768;49.464;10.882;2024-03-02T05:01:43;96738.00;;;4.34;88.26
86115;BME280;76768;49.464;10.882;2024-03-02T05:04:09;96743.44;;;4.38;88.88
86115;BME280;76768;49.464;10.882;2024-03-02T05:06:39;96748.56;;;4.36;88.73
86115;BME280;76768;49.464;10.882;2024-03-02T05:09:08;96748.16;;;4.37;88.12
86115;BME280;76768;49.464;10.882;2024-03-02T05:11:35;96741.91;;;4.37;88.46
86115;BME280;76768;49.464;10.882;2024-03-02T05:14:03;96749.72;;;4.38;90.73
86115;BME280;76768;49.464;10.882;2024-03-02T05:16:32;96751.31;;;4.36;89.88
86115;BME280;76768;49.464;10.882;2024-03-02T05:18:57;96747.00;;;4.35;89.75
86115;BME280;76768;49.464;10.882;2024-03-02T05:21:22;96751.69;;;4.38;90.46
86115;BME280;76768;49.464;10.882;2024-03-02T05:23:48;96752.91;;;4.37;89.80
86115;BME280;76768;49.464;10.882;2024-03-02T05:26:13;96754.44;;;4.38;90.41
86115;BME280;76768;49.464;10.882;2024-03-02T05:28:38;96752.91;;;4.37;89.48
86115;BME280;76768;49.464;10.882;2024-03-02T05:31:04;96748.94;;;4.38;90.12
86115;BME280;76768;49.464;10.882;2024-03-02T05:33:29;96750.91;;;4.37;90.41
86115;BME280;76768;49.464;10.882;2024-03-02T05:35:56;96741.16;;;4.33;89.73
86115;BME280;76768;49.464;10.882;2024-03-02T05:38:22;96745.81;;;4.36;89.56
86115;BME280;76768;49.464;10.882;2024-03-02T05:40:47;96753.72;;;4.34;89.19
86115;BME280;76768;49.464;10.882;2024-03-02T05:43:12;96756.03;;;4.35;89.11
86115;BME280;76768;49.464;10.882;2024-03-02T05:45:38;96766.22;;;4.38;88.57
86115;BME280;76768;49.464;10.882;2024-03-02T05:48:05;96752.91;;;4.37;89.28
86115;BME280;76768;49.464;10.882;2024-03-02T05:50:31;96758.78;;;4.35;88.81
86115;BME280;76768;49.464;10.882;2024-03-02T05:52:56;96760.75;;;4.35;89.66
86115;BME280;76768;49.464;10.882;2024-03-02T05:55:22;96766.25;;;4.35;89.54
86115;BME280;76768;49.464;10.882;2024-03-02T05:57:47;96764.72;;;4.34;88.81
86115;BME280;76768;49.464;10.882;2024-03-02T06:00:20;96764.81;;;4.27;89.14
86115;BME280;76768;49.464;10.882;2024-03-02T06:02:46;96760.03;;;4.31;88.60
86115;BME280;76768;49.464;10.882;2024-03-02T06:05:11;96754.63;;;4.23;89.36
86115;BME280;76768;49.464;10.882;2024-03-02T06:07:36;96758.50;;;4.30;88.52
86115;BME280;76768;49.464;10.882;2024-03-02T06:10:02;96756.28;;;4.17;89.46
86115;BME280;76768;49.464;10.882;2024-03-02T06:12:27;96763.25;;;4.26;89.19
86115;BME280;76768;49.464;10.882;2024-03-02T06:14:52;96772.69;;;4.25;89.29
86115;BME280;76768;49.464;10.882;2024-03-02T06:17:18;96767.97;;;4.25;89.17
86115;BME280;76768;49.464;10.882;2024-03-02T06:19:44;96765.28;;;4.21;88.57
86115;BME280;76768;49.464;10.882;2024-03-02T06:22:09;96767.19;;;4.25;88.52
86115;BME280;76768;49.464;10.882;2024-03-02T06:24:36;96773.88;;;4.23;88.43
86115;BME280;76768;49.464;10.882;2024-03-02T06:27:01;96771.91;;;4.24;88.99
86115;BME280;76768;49.464;10.882;2024-03-02T06:29:26;96764.13;;;4.19;88.97
86115;BME280;76768;49.464;10.882;2024-03-02T06:31:51;96769.56;;;4.22;88.65
86115;BME280;76768;49.464;10.882;2024-03-02T06:34:17;96770.41;;;4.19;88.71
86115;BME280;76768;49.464;10.882;2024-03-02T06:36:42;96754.75;;;4.16;88.82
86115;BME280;76768;49.464;10.882;2024-03-02T06:39:07;96768.78;;;4.22;88.83
86115;BME280;76768;49.464;10.882;2024-03-02T06:41:33;96771.13;;;4.23;89.29
86115;BME280;76768;49.464;10.882;2024-03-02T06:43:59;96770.78;;;4.21;88.78
86115;BME280;76768;49.464;10.882;2024-03-02T06:46:27;96778.56;;;4.27;89.05
86115;BME280;76768;49.464;10.882;2024-03-02T06:48:52;96781.69;;;4.29;89.01
86115;BME280;76768;49.464;10.882;2024-03-02T06:51:17;96769.50;;;4.30;88.97
86115;BME280;76768;49.464;10.882;2024-03-02T06:53:43;96769.09;;;4.28;89.39
86115;BME280;76768;49.464;10.882;2024-03-02T06:56:08;96768.66;;;4.33;88.40
86115;BME280;76768;49.464;10.882;2024-03-02T06:58:34;96764.66;;;4.37;89.02
86115;BME280;76768;49.464;10.882;2024-03-02T07:00:59;96774.78;;;4.44;88.60
86115;BME280;76768;49.464;10.882;2024-03-02T07:03:27;96775.88;;;4.50;90.01
86115;BME280;76768;49.464;10.882;2024-03-02T07:05:53;96780.81;;;4.62;89.46
86115;BME280;76768;49.464;10.882;2024-03-02T07:08:18;96776.81;;;4.67;88.57
86115;BME280;76768;49.464;10.882;2024-03-02T07:10:43;96777.41;;;4.82;89.14
86115;BME280;76768;49.464;10.882;2024-03-02T07:13:08;96777.97;;;4.93;88.26
86115;BME280;76768;49.464;10.882;2024-03-02T07:15:34;96778.66;;;5.01;88.26
86115;BME280;76768;49.464;10.882;2024-03-02T07:18:15;96773.09;;;5.04;89.01
86115;BME280;76768;49.464;10.882;2024-03-02T07:20:40;96777.72;;;5.11;89.07
86115;BME280;76768;49.464;10.882;2024-03-02T07:23:06;96777.66;;;5.14;88.03
86115;BME280;76768;49.464;10.882;2024-03-02T07:25:31;96787.69;;;5.25;88.05
86115;BME280;76768;49.464;10.882;2024-03-02T07:27:56;96792.25;;;5.35;87.60
86115;BME280;76768;49.464;10.882;2024-03-02T07:30:22;96778.06;;;5.36;88.18
86115;BME280;76768;49.464;10.882;2024-03-02T07:32:50;96789.63;;;5.51;88.67
86115;BME280;76768;49.464;10.882;2024-03-02T07:35:15;96777.72;;;5.54;88.47
86115;BME280;76768;49.464;10.882;2024-03-02T07:37:41;96782.78;;;5.59;88.12
86115;BME280;76768;49.464;10.882;2024-03-02T07:40:07;96783.75;;;5.69;87.73
86115;BME280;76768;49.464;10.882;2024-03-02T07:42:37;96786.03;;;5.74;87.34
86115;BME280;76768;49.464;10.882;2024-03-02T07:45:02;96792.69;;;5.77;87.51
86115;BME280;76768;49.464;10.882;2024-03-02T07:47:27;96793.66;;;5.86;87.32
86115;BME280;76768;49.464;10.882;2024-03-02T07:49:53;96783.78;;;5.89;87.07
86115;BME280;76768;49.464;10.882;2024-03-02T07:52:18;96788.09;;;5.90;87.41
86115;BME280;76768;49.464;10.882;2024-03-02T07:54:43;96786.44;;;5.96;87.10
86115;BME280;76768;49.464;10.882;2024-03-02T07:57:09;96786.28;;;6.03;86.86
86115;BME280;76768;49.464;10.882;2024-03-02T07:59:35;96786.97;;;6.07;87.14
86115;BME280;76768;49.464;10.882;2024-03-02T08:02:01;96793.78;;;6.23;86.83
86115;BME280;76768;49.464;10.882;2024-03-02T08:04:27;96789.81;;;6.24;86.68
86115;BME280;76768;49.464;10.882;2024-03-02T08:06:52;96802.09;;;6.39;86.35
86115;BME280;76768;49.464;10.882;2024-03-02T08:09:18;96797.16;;;6.50;86.49
86115;BME280;76768;49.464;10.882;2024-03-02T08:11:43;96793.72;;;6.62;86.51
86115;BME280;76768;49.464;10.882;2024-03-02T08:14:08;96795.81;;;6.75;85.72
86115;BME280;76768;49.464;10.882;2024-03-02T08:16:34;96798.22;;;6.89;84.91
86115;BME280;76768;49.464;10.882;2024-03-02T08:18:59;96796.88;;;6.97;84.23
86115;BME280;76768;49.464;10.882;2024-03-02T08:21:25;96798.25;;;7.05;84.14
86115;BME280;76768;49.464;10.882;2024-03-02T08:23:50;96799.63;;;7.13;82.72
86115;BME280;76768;49.464;10.882;2024-03-02T08:26:16;96796.00;;;7.16;82.67
86115;BME280;76768;49.464;10.882;2024-03-02T08:28:42;96803.28;;;7.27;82.68
86115;BME280;76768;49.464;10.882;2024-03-02T08:31:07;96801.38;;;7.40;82.62
86115;BME280;76768;49.464;10.882;2024-03-02T08:33:33;96800.31;;;7.50;82.55
86115;BME280;76768;49.464;10.882;2024-03-02T08:35:59;96799.84;;;7.68;81.50
86115;BME280;76768;49.464;10.882;2024-03-02T08:38:24;96798.00;;;7.78;80.92
86115;BME280;76768;49.464;10.882;2024-03-02T08:40:50;96772.44;;;7.74;80.41
86115;BME280;76768;49.464;10.882;2024-03-02T08:43:15;96791.75;;;7.90;80.88
86115;BME280;76768;49.464;10.882;2024-03-02T08:45:41;96785.50;;;8.02;80.24
86115;BME280;76768;49.464;10.882;2024-03-02T08:48:09;96789.06;;;8.15;79.15
86115;BME280;76768;49.464;10.882;2024-03-02T08:50:36;96795.94;;;8.24;78.87
86115;BME280;76768;49.464;10.882;2024-03-02T08:53:03;96794.22;;;8.30;78.89
86115;BME280;76768;49.464;10.882;2024-03-02T08:55:28;96795.59;;;8.38;79.39
86115;BME280;76768;49.464;10.882;2024-03-02T08:57:54;96792.06;;;8.50;77.73
86115;BME280;76768;49.464;10.882;2024-03-02T09:00:20;96796.06;;;8.49;77.36
86115;BME280;76768;49.464;10.882;2024-03-02T09:02:46;96789.72;;;8.49;77.66
86115;BME280;76768;49.464;10.882;2024-03-02T09:05:11;96787.41;;;8.47;77.50
86115;BME280;76768;49.464;10.882;2024-03-02T09:07:37;96788.94;;;8.48;77.55
86115;BME280;76768;49.464;10.882;2024-03-02T09:10:04;96795.16;;;8.52;77.61
86115;BME280;76768;49.464;10.882;2024-03-02T09:12:31;96786.31;;;8.57;76.69
86115;BME280;76768;49.464;10.882;2024-03-02T09:14:56;96789.63;;;8.65;77.17
86115;BME280;76768;49.464;10.882;2024-03-02T09:17:22;96797.16;;;8.64;77.23
86115;BME280;76768;49.464;10.882;2024-03-02T09:19:48;96802.72;;;8.64;76.61
86115;BME280;76768;49.464;10.882;2024-03-02T09:22:13;96808.34;;;8.61;76.46
86115;BME280;76768;49.464;10.882;2024-03-02T09:24:38;96810.34;;;8.60;76.66
86115;BME280;76768;49.464;10.882;2024-03-02T09:27:04;96809.81;;;8.65;76.55
86115;BME280;76768;49.464;10.882;2024-03-02T09:29:29;96791.88;;;8.57;76.69
86115;BME280;76768;49.464;10.882;2024-03-02T09:31:55;96810.25;;;8.64;76.28
86115;BME280;76768;49.464;10.882;2024-03-02T09:34:20;96792.84;;;8.63;76.11
86115;BME280;76768;49.464;10.882;2024-03-02T09:36:46;96796.75;;;8.79;75.85
86115;BME280;76768;49.464;10.882;2024-03-02T09:39:11;96799.31;;;8.86;75.11
86115;BME280;76768;49.464;10.882;2024-03-02T09:41:37;96805.06;;;8.91;76.02
86115;BME280;76768;49.464;10.882;2024-03-02T09:44:03;96801.72;;;8.97;75.71
86115;BME280;76768;49.464;10.882;2024-03-02T09:46:29;96796.75;;;9.04;73.90
86115;BME280;76768;49.464;10.882;2024-03-02T09:48:54;96814.03;;;9.08;74.32
86115;BME280;76768;49.464;10.882;2024-03-02T09:51:20;96807.94;;;9.13;74.21
86115;BME280;76768;49.464;10.882;2024-03-02T09:53:45;96808.28;;;9.15;73.07
86115;BME280;76768;49.464;10.882;2024-03-02T09:56:12;96806.47;;;9.22;73.81
86115;BME280;76768;49.464;10.882;2024-03-02T09:58:38;96804.06;;;9.24;73.38
86115;BME280;76768;49.464;10.882;2024-03-02T10:01:06;96810.03;;;9.35;73.21
86115;BME280;76768;49.464;10.882;2024-03-02T10:03:33;96803.47;;;9.41;73.45
86115;BME280;76768;49.464;10.882;2024-03-02T10:06:21;96809.00;;;9.41;72.69
86115;BME280;76768;49.464;10.882;2024-03-02T10:08:47;96814.44;;;9.45;72.09
86115;BME280;76768;49.464;10.882;2024-03-02T10:11:36;96802.22;;;9.55;72.31
86115;BME280;76768;49.464;10.882;2024-03-02T10:14:13;96810.75;;;9.61;71.24
86115;BME280;76768;49.464;10.882;2024-03-02T10:16:43;96810.50;;;9.68;70.58
86115;BME280;76768;49.464;10.882;2024-03-02T10:19:22;96811.94;;;9.73;70.28
86115;BME280;76768;49.464;10.882;2024-03-02T10:21:52;96810.25;;;9.75;71.53
86115;BME280;76768;49.464;10.882;2024-03-02T10:24:18;96802.16;;;9.81;70.49
86115;BME280;76768;49.464;10.882;2024-03-02T10:26:44;96809.31;;;9.91;70.28
86115;BME280;76768;49.464;10.882;2024-03-02T10:29:09;96812.63;;;9.99;70.02
86115;BME280;76768;49.464;10.882;2024-03-02T10:31:40;96813.72;;;10.01;70.33
86115;BME280;76768;49.464;10.882;2024-03-02T10:34:06;96809.13;;;10.07;70.69
86115;BME280;76768;49.464;10.882;2024-03-02T10:36:36;96803.69;;;10.16;69.82
86115;BME280;76768;49.464;10.882;2024-03-02T10:39:05;96797.53;;;10.22;69.64
86115;BME280;76768;49.464;10.882;2024-03-02T10:41:35;96800.22;;;10.25;69.98
86115;BME280;76768;49.464;10.882;2024-03-02T10:44:08;96800.16;;;10.38;70.21
86115;BME280;76768;49.464;10.882;2024-03-02T10:46:36;96797.03;;;10.58;68.98
86115;BME280;76768;49.464;10.882;2024-03-02T10:49:03;96792.69;;;10.57;68.77
86115;BME280;76768;49.464;10.882;2024-03-02T10:51:30;96791.81;;;10.69;68.39
86115;BME280;76768;49.464;10.882;2024-03-02T10:53:59;96796.94;;;10.71;68.61
86115;BME280;76768;49.464;10.882;2024-03-02T10:56:34;96790.66;;;10.79;67.89
86115;BME280;76768;49.464;10.882;2024-03-02T10:59:03;96784.81;;;10.86;68.71
86115;BME280;76768;49.464;10.882;2024-03-02T11:01:32;96778.81;;;10.97;67.80
86115;BME280;76768;49.464;10.882;2024-03-02T11:03:58;96775.47;;;11.02;68.02
86115;BME280;76768;49.464;10.882;2024-03-02T11:06:26;96775.16;;;11.09;68.57
86115;BME280;76768;49.464;10.882;2024-03-02T11:08:55;96776.13;;;11.25;67.26
86115;BME280;76768;49.464;10.882;2024-03-02T11:11:28;96770.91;;;11.36;67.60
86115;BME280;76768;49.464;10.882;2024-03-02T11:13:56;96766.00;;;11.49;67.53
86115;BME280;76768;49.464;10.882;2024-03-02T11:16:34;96767.25;;;11.66;65.84
86115;BME280;76768;49.464;10.882;2024-03-02T11:19:05;96765.41;;;11.82;66.61
86115;BME280;76768;49.464;10.882;2024-03-02T11:21:33;96762.66;;;12.00;64.26
86115;BME280;76768;49.464;10.882;2024-03-02T11:23:59;96754.31;;;12.09;64.66
86115;BME280;76768;49.464;10.882;2024-03-02T11:26:24;96756.75;;;12.26;63.88
86115;BME280;76768;49.464;10.882;2024-03-02T11:28:50;96757.97;;;12.34;63.27
86115;BME280;76768;49.464;10.882;2024-03-02T11:31:16;96753.66;;;12.33;61.97
86115;BME280;76768;49.464;10.882;2024-03-02T11:33:41;96754.25;;;12.37;62.01
86115;BME280;76768;49.464;10.882;2024-03-02T11:36:08;96748.97;;;12.39;62.25
86115;BME280;76768;49.464;10.882;2024-03-02T11:38:34;96745.91;;;12.37;61.71
86115;BME280;76768;49.464;10.882;2024-03-02T11:41:01;96754.56;;;12.39;60.79
86115;BME280;76768;49.464;10.882;2024-03-02T11:43:28;96742.50;;;12.42;60.47
86115;BME280;76768;49.464;10.882;2024-03-02T11:46:00;96746.66;;;12.47;61.78
86115;BME280;76768;49.464;10.882;2024-03-02T11:48:26;96748.00;;;12.60;59.76
86115;BME280;76768;49.464;10.882;2024-03-02T11:50:52;96739.03;;;12.66;59.71
86115;BME280;76768;49.464;10.882;2024-03-02T11:53:18;96729.25;;;12.70;60.07
86115;BME280;76768;49.464;10.882;2024-03-02T11:55:44;96733.69;;;12.77;61.28
86115;BME280;76768;49.464;10.882;2024-03-02T11:58:12;96716.19;;;12.76;61.93
86115;BME280;76768;49.464;10.882;2024-03-02T12:00:38;96723.41;;;12.92;61.09
86115;BME280;76768;49.464;10.882;2024-03-02T12:03:07;96723.06;;;12.99;60.60
86115;BME280;76768;49.464;10.882;2024-03-02T12:05:34;96702.63;;;12.93;61.21
86115;BME280;76768;49.464;10.882;2024-03-02T12:08:01;96703.81;;;13.10;60.58
86115;BME280;76768;49.464;10.882;2024-03-02T12:10:27;96724.44;;;13.37;60.35
86115;BME280;76768;49.464;10.882;2024-03-02T12:13:00;96720.16;;;13.27;59.85
86115;BME280;76768;49.464;10.882;2024-03-02T12:15:26;96718.69;;;13.07;59.90
86115;BME280;76768;49.464;10.882;2024-03-02T12:17:56;96706.78;;;13.07;60.20
86115;BME280;76768;49.464;10.882;2024-03-02T12:20:22;96710.63;;;13.09;59.99
86115;BME280;76768;49.464;10.882;2024-03-02T12:22:52;96699.63;;;13.06;59.89
86115;BME280;76768;49.464;10.882;2024-03-02T12:25:21;96710.19;;;13.02;60.68
86115;BME280;76768;49.464;10.882;2024-03-02T12:27:49;96703.84;;;13.01;59.41
86115;BME280;76768;49.464;10.882;2024-03-02T12:30:19;96711.75;;;13.03;60.15
86115;BME280;76768;49.464;10.882;2024-03-02T12:32:45;96692.34;;;13.08;60.12
86115;BME280;76768;49.464;10.882;2024-03-02T12:35:10;96697.25;;;13.23;58.88
86115;BME280;76768;49.464;10.882;2024-03-02T12:37:47;96696.31;;;13.17;58.18
86115;BME280;76768;49.464;10.882;2024-03-02T12:40:14;96695.66;;;13.31;59.23
86115;BME280;76768;49.464;10.882;2024-03-02T12:42:40;96687.88;;;13.35;59.08
86115;BME280;76768;49.464;10.882;2024-03-02T12:45:07;96677.31;;;13.39;58.73
86115;BME280;76768;49.464;10.882;2024-03-02T12:47:36;96680.44;;;13.32;58.31
86115;BME280;76768;49.464;10.882;2024-03-02T12:50:03;96677.59;;;13.41;58.42
86115;BME280;76768;49.464;10.882;2024-03-02T12:52:29;96676.81;;;13.41;58.04
86115;BME280;76768;49.464;10.882;2024-03-02T12:54:56;96675.38;;;13.45;57.91
86115;BME280;76768;49.464;10.882;2024-03-02T12:57:26;96677.91;;;13.58;57.42